Terminal Aerodrome Forecast
Issued by NWS

Home | Current Version | Previous Version | Text Only | Print | Product List | Glossary On
Versions: 1 2 3 4 5 6 7 8 9 10 11 12 13 14 15 16 17 18 19 20 21 22 23 24
234
FTUS43 KDDC 081123
TAFGCK
TAF
KGCK 081123Z 0812/0912 32016KT P6SM SCT110
     FM081500 33018G28KT P6SM FEW250
     FM081900 33030G38KT P6SM FEW250
     FM090000 33013KT P6SM SKC=

USA.gov is the U.S. government's official web portal to all federal, state and local government web resources and services.